Time;durP1;ratioP1;P1;durP2;ratioP2;P2;SDS_P1;SDS_P2;PMS_P1;PMS_P2;Temp;Humidity;BMP_temperature;BMP_pressure;BME280_temperature;BME280_humidity;BME280_pressure;Samples;Min_cycle;Max_cycle;Signal;HPM_P1;HPM_P2
2021/10/11 00:01:34;;;;;;;14.95;7.03;;;;;;;1.73;98.57;99972.47;5090658;28;20044;-83
2021/10/11 00:04:12;;;;;;;12.88;6.85;;;;;;;1.86;99.01;99988.53;5086590;28;20056;-83
2021/10/11 00:06:50;;;;;;;9.15;6.07;;;;;;;1.71;98.21;99970.84;5093708;28;20128;-83
2021/10/11 00:09:20;;;;;;;9.65;5.85;;;;;;;1.63;98.77;99971.41;5077466;28;20052;-83
2021/10/11 00:11:52;;;;;;;10.20;6.45;;;;;;;1.72;99.30;99984.16;5099188;28;20079;-82
2021/10/11 00:14:21;;;;;;;11.15;5.60;;;;;;;1.69;99.07;99987.06;5079696;28;20049;-82
2021/10/11 00:16:50;;;;;;;10.60;6.05;;;;;;;1.61;98.58;99973.31;5092972;28;20059;-82
2021/10/11 00:19:17;;;;;;;9.43;6.38;;;;;;;1.72;98.42;99973.44;5077959;28;20056;-82
2021/10/11 00:21:47;;;;;;;11.57;5.93;;;;;;;1.65;98.85;99964.09;5073717;28;20048;-82
2021/10/11 00:24:14;;;;;;;10.30;6.65;;;;;;;1.75;97.99;99969.69;5103566;28;20047;-82
2021/10/11 00:26:43;;;;;;;10.52;6.22;;;;;;;1.62;98.24;99969.69;5107262;28;20472;-82
2021/10/11 00:29:10;;;;;;;13.65;6.82;;;;;;;1.63;98.23;99976.75;5087412;28;20101;-82
2021/10/11 00:31:37;;;;;;;13.18;6.45;;;;;;;1.57;98.65;99987.91;5094095;28;20047;-82
2021/10/11 00:34:04;;;;;;;7.75;5.72;;;;;;;1.31;98.20;99973.63;5094367;28;20097;-82
2021/10/11 00:36:31;;;;;;;10.77;6.32;;;;;;;1.39;98.66;99965.94;5091157;28;20388;-82
2021/10/11 00:39:00;;;;;;;11.50;6.53;;;;;;;1.42;98.48;99966.56;5094316;28;20079;-82
2021/10/11 00:41:31;;;;;;;13.60;5.70;;;;;;;1.52;98.37;99988.25;5094426;28;20048;-82
2021/10/11 00:43:59;;;;;;;9.23;6.05;;;;;;;1.40;98.25;99955.13;5094399;28;20360;-83
2021/10/11 00:46:26;;;;;;;9.85;5.60;;;;;;;1.47;98.00;99968.09;5093646;28;20479;-82
2021/10/11 00:48:53;;;;;;;11.43;6.65;;;;;;;1.42;98.00;99953.16;5093592;28;20411;-82
2021/10/11 00:51:20;;;;;;;10.93;6.20;;;;;;;1.52;98.32;99968.59;5100931;28;20056;-82
2021/10/11 00:53:47;;;;;;;9.90;6.30;;;;;;;1.40;98.08;99965.84;5114076;28;20058;-83
2021/10/11 00:56:17;;;;;;;13.95;6.82;;;;;;;1.26;98.97;99967.75;5097041;28;20040;-82
2021/10/11 00:58:44;;;;;;;10.93;6.45;;;;;;;1.19;99.38;99965.50;5094276;28;20048;-82
2021/10/11 01:01:11;;;;;;;11.27;6.07;;;;;;;1.22;99.64;99951.88;5093428;28;20492;-82
2021/10/11 01:03:39;;;;;;;10.90;6.38;;;;;;;1.29;100.00;99972.88;5093895;28;20044;-82
2021/10/11 01:08:48;;;;;;;10.45;5.50;;;;;;;1.17;100.00;99954.00;5113291;28;20043;-82
2021/10/11 01:11:21;;;;;;;8.18;5.38;;;;;;;1.23;100.00;99953.63;5099324;28;20044;-82
2021/10/11 01:13:48;;;;;;;13.38;6.13;;;;;;;1.14;100.00;99943.50;5093863;28;20713;-83
2021/10/11 01:16:15;;;;;;;11.35;6.22;;;;;;;1.18;100.00;99950.38;5093179;28;20052;-82
2021/10/11 01:18:46;;;;;;;10.68;6.03;;;;;;;1.31;100.00;99931.66;5090616;28;20491;-82
2021/10/11 01:21:15;;;;;;;8.73;6.38;;;;;;;1.26;100.00;99947.16;5093204;28;20105;-82
2021/10/11 01:23:44;;;;;;;10.25;5.30;;;;;;;1.25;100.00;99942.78;5093431;28;20052;-83
2021/10/11 01:26:11;;;;;;;11.98;6.40;;;;;;;1.18;100.00;99957.56;5092797;28;20475;-82
2021/10/11 01:28:39;;;;;;;12.00;6.10;;;;;;;1.32;100.00;99959.28;5104348;28;20498;-82
2021/10/11 01:31:07;;;;;;;12.88;7.40;;;;;;;1.27;100.00;99940.00;5102170;28;20080;-82
2021/10/11 01:33:34;;;;;;;11.02;5.82;;;;;;;1.26;100.00;99962.38;5102833;28;20048;-82
2021/10/11 01:36:01;;;;;;;9.43;5.68;;;;;;;1.12;99.70;99948.13;5102936;28;20062;-82
2021/10/11 01:38:29;;;;;;;12.13;7.15;;;;;;;1.00;99.73;99941.78;5093494;28;20040;-82
2021/10/11 01:40:56;;;;;;;14.18;6.28;;;;;;;1.04;100.00;99958.50;5093108;28;20070;-82
2021/10/11 01:43:24;;;;;;;10.48;5.85;;;;;;;0.94;99.68;99965.44;5092998;28;20059;-82
2021/10/11 01:45:52;;;;;;;12.10;6.25;;;;;;;0.95;99.45;99945.72;5092934;28;20052;-82
2021/10/11 01:48:19;;;;;;;8.88;5.78;;;;;;;1.00;99.55;99963.19;5093433;28;20044;-82
2021/10/11 01:50:46;;;;;;;10.85;6.05;;;;;;;1.10;98.65;99957.22;5107195;28;20146;-82
2021/10/11 01:53:13;;;;;;;8.82;6.15;;;;;;;1.00;98.38;99946.28;5093245;28;20063;-82
2021/10/11 01:55:41;;;;;;;9.52;5.85;;;;;;;0.87;98.60;99955.16;5092921;28;20100;-82
2021/10/11 01:58:08;;;;;;;10.63;6.28;;;;;;;0.87;99.13;99952.47;5112137;28;20054;-82
2021/10/11 02:00:35;;;;;;;13.95;6.50;;;;;;;0.70;99.19;99918.81;5094726;28;20047;-82
2021/10/11 02:03:06;;;;;;;9.82;6.10;;;;;;;0.79;99.67;99960.16;5097211;28;20380;-82
2021/10/11 02:05:34;;;;;;;10.40;6.57;;;;;;;0.56;99.92;99928.72;5096501;28;20044;-82
2021/10/11 02:08:01;;;;;;;11.30;6.22;;;;;;;0.63;100.00;99922.88;5096933;28;20052;-82
2021/10/11 02:10:31;;;;;;;10.13;5.38;;;;;;;0.83;99.42;99928.69;5097021;28;20044;-82
2021/10/11 02:13:03;;;;;;;9.32;5.45;;;;;;;0.85;98.84;99924.09;5083691;28;20044;-82
2021/10/11 02:15:30;;;;;;;10.32;5.60;;;;;;;0.80;98.80;99931.56;5096449;28;20483;-82
2021/10/11 02:18:01;;;;;;;9.05;5.95;;;;;;;0.73;99.08;99914.22;5096532;28;20574;-82
2021/10/11 02:20:28;;;;;;;10.02;4.95;;;;;;;0.70;99.15;99921.47;5096562;28;20114;-82
2021/10/11 02:22:57;;;;;;;9.35;5.55;;;;;;;0.60;100.00;99939.09;5095319;28;20050;-81
2021/10/11 02:25:24;;;;;;;10.75;6.00;;;;;;;0.61;100.00;99943.50;5096307;28;20052;-81
2021/10/11 02:27:58;;;;;;;11.27;5.78;;;;;;;0.57;99.66;99914.38;5109545;28;20135;-82
2021/10/11 02:30:30;;;;;;;10.48;6.05;;;;;;;0.59;99.36;99916.00;5111924;28;20054;-82
2021/10/11 02:33:02;;;;;;;11.30;5.75;;;;;;;0.55;99.74;99914.47;5096236;28;20135;-82
2021/10/11 02:35:34;;;;;;;9.90;5.50;;;;;;;0.68;99.28;99923.41;5083782;28;20087;-81
2021/10/11 02:38:01;;;;;;;13.10;5.65;;;;;;;0.75;98.83;99914.97;5095640;28;20471;-82
2021/10/11 02:40:28;;;;;;;10.25;5.95;;;;;;;0.66;98.75;99903.94;5095728;28;20127;-82
2021/10/11 02:43:06;;;;;;;10.98;5.40;;;;;;;0.47;98.86;99912.31;5094720;28;20380;-81
2021/10/11 02:45:38;;;;;;;8.88;5.55;;;;;;;0.57;98.80;99909.88;5095471;28;20040;-82
2021/10/11 02:48:06;;;;;;;8.95;4.95;;;;;;;0.69;98.20;99913.56;5088022;28;20109;-82
2021/10/11 02:50:35;;;;;;;13.32;5.63;;;;;;;0.43;97.60;99901.94;5095923;28;20101;-82
2021/10/11 02:53:02;;;;;;;8.63;5.40;;;;;;;0.38;98.58;99917.41;5076996;28;20380;-82
2021/10/11 02:55:29;;;;;;;9.43;5.43;;;;;;;0.30;99.06;99908.09;5094049;28;20483;-82
2021/10/11 02:57:56;;;;;;;8.65;5.07;;;;;;;0.29;98.54;99933.13;5075119;28;20052;-82
2021/10/11 03:00:24;;;;;;;6.75;5.03;;;;;;;0.15;98.95;99917.09;5089157;28;20047;-82
2021/10/11 03:02:52;;;;;;;7.85;5.18;;;;;;;0.24;98.97;99915.66;5094001;28;20048;-82
2021/10/11 03:05:19;;;;;;;7.18;5.40;;;;;;;0.36;99.35;99928.22;5093687;28;20050;-82
2021/10/11 03:07:46;;;;;;;10.55;5.75;;;;;;;0.23;98.99;99912.13;5093767;28;20056;-82
2021/10/11 03:10:13;;;;;;;10.57;5.90;;;;;;;0.15;98.87;99882.34;5094447;28;20082;-82
2021/10/11 03:12:40;;;;;;;11.38;5.82;;;;;;;0.09;99.77;99899.66;5095312;28;20052;-82
2021/10/11 03:15:09;;;;;;;17.83;6.53;;;;;;;0.06;99.92;99905.22;5095306;28;20475;-82
2021/10/11 03:17:36;;;;;;;10.95;5.32;;;;;;;0.26;99.48;99919.09;5095321;28;20079;-82
2021/10/11 03:20:08;;;;;;;11.93;6.40;;;;;;;0.31;99.54;99922.31;5095701;28;20062;-82
2021/10/11 03:22:35;;;;;;;12.20;6.38;;;;;;;0.09;100.00;99901.47;5106431;28;20071;-82
2021/10/11 03:25:02;;;;;;;12.25;6.70;;;;;;;0.02;100.00;99900.19;5099276;28;20108;-82
2021/10/11 03:27:29;;;;;;;9.95;6.05;;;;;;;-0.02;100.00;99896.81;5115811;28;20048;-81
2021/10/11 03:29:55;;;;;;;9.52;5.47;;;;;;;-0.08;100.00;99894.53;5107672;28;20052;-82
2021/10/11 03:32:22;;;;;;;9.85;5.85;;;;;;;0.06;100.00;99907.00;5095445;28;20048;-82
2021/10/11 03:34:49;;;;;;;8.82;5.63;;;;;;;-0.02;100.00;99873.59;5096321;28;20044;-82
2021/10/11 03:37:18;;;;;;;10.75;6.07;;;;;;;0.06;100.00;99861.56;5095091;28;20052;-82
2021/10/11 03:39:45;;;;;;;13.30;7.38;;;;;;;0.10;100.00;99863.09;5094812;28;20040;-82
2021/10/11 03:42:12;;;;;;;11.27;6.32;;;;;;;0.32;100.00;99884.78;5095052;28;20553;-82
2021/10/11 03:44:39;;;;;;;12.93;7.47;;;;;;;0.21;100.00;99849.00;5094336;28;20517;-82
2021/10/11 03:47:06;;;;;;;13.48;6.80;;;;;;;0.25;100.00;99843.34;5095098;28;20438;-82
2021/10/11 03:49:33;;;;;;;11.95;6.72;;;;;;;0.33;100.00;99854.41;5095072;28;20082;-82
2021/10/11 03:51:59;;;;;;;12.00;5.93;;;;;;;0.34;100.00;99841.88;5094961;28;20040;-82
2021/10/11 03:54:29;;;;;;;9.15;6.15;;;;;;;0.39;100.00;99855.78;5094691;28;20462;-82
2021/10/11 03:56:56;;;;;;;13.45;7.38;;;;;;;0.51;100.00;99878.19;5089362;28;20064;-81
2021/10/11 03:59:23;;;;;;;11.30;6.97;;;;;;;0.43;100.00;99848.44;5077525;28;20079;-82
2021/10/11 04:01:50;;;;;;;10.48;6.78;;;;;;;0.48;100.00;99852.50;5094793;28;20427;-82
2021/10/11 04:04:18;;;;;;;12.30;7.03;;;;;;;0.53;100.00;99857.56;5094435;28;20060;-82
2021/10/11 04:06:44;;;;;;;12.02;6.55;;;;;;;0.51;100.00;99859.47;5094828;28;20461;-82
2021/10/11 04:09:13;;;;;;;11.10;7.50;;;;;;;0.49;100.00;99883.63;5094785;28;20138;-82
2021/10/11 04:11:41;;;;;;;12.00;6.20;;;;;;;0.69;100.00;99897.50;5094514;28;20140;-82
2021/10/11 04:14:08;;;;;;;11.65;6.30;;;;;;;0.64;100.00;99883.59;5094776;28;20048;-82
2021/10/11 04:16:35;;;;;;;13.45;7.05;;;;;;;0.63;100.00;99892.56;5093893;28;20044;-82
2021/10/11 04:19:02;;;;;;;11.63;6.97;;;;;;;0.47;100.00;99890.06;5094290;28;20055;-82
2021/10/11 04:21:29;;;;;;;12.10;7.22;;;;;;;0.36;100.00;99893.44;5094121;28;20148;-82
2021/10/11 04:23:56;;;;;;;11.20;6.20;;;;;;;0.29;100.00;99882.31;5093413;28;20052;-83
2021/10/11 04:26:23;;;;;;;18.55;7.18;;;;;;;0.31;100.00;99907.13;5094158;28;20044;-83
2021/10/11 04:28:52;;;;;;;13.88;6.03;;;;;;;0.34;100.00;99901.56;5094239;28;20044;-83
2021/10/11 04:31:19;;;;;;;14.40;6.60;;;;;;;0.27;100.00;99894.94;5094200;28;20107;-82
2021/10/11 04:33:46;;;;;;;10.27;5.55;;;;;;;0.22;100.00;99897.03;5094238;28;20044;-82
2021/10/11 04:36:13;;;;;;;14.32;7.60;;;;;;;0.29;100.00;99922.44;5092931;28;20059;-82
2021/10/11 04:38:40;;;;;;;14.27;7.03;;;;;;;0.20;100.00;99906.09;5094165;28;20047;-82
2021/10/11 04:41:07;;;;;;;13.13;6.53;;;;;;;0.29;100.00;99910.88;5092936;28;20110;-82
2021/10/11 04:43:34;;;;;;;10.57;6.43;;;;;;;0.35;100.00;99918.50;5093914;28;20052;-83
2021/10/11 04:46:02;;;;;;;12.48;6.78;;;;;;;0.12;100.00;99903.94;5093826;28;20052;-82
2021/10/11 04:48:50;;;;;;;12.73;6.55;;;;;;;0.12;100.00;99919.97;5093908;28;20056;-82
2021/10/11 04:51:17;;;;;;;13.77;6.75;;;;;;;0.09;100.00;99912.16;5093744;28;20056;-82
2021/10/11 04:53:44;;;;;;;9.52;5.68;;;;;;;0.23;100.00;99922.81;5093517;28;20114;-81
2021/10/11 04:56:11;;;;;;;13.00;7.05;;;;;;;0.23;100.00;99925.50;5093529;28;20540;-82
2021/10/11 04:58:38;;;;;;;13.00;6.25;;;;;;;0.03;100.00;99915.22;5093634;28;20666;-82
2021/10/11 05:01:06;;;;;;;10.30;6.28;;;;;;;0.06;100.00;99899.88;5093713;28;20044;-82
2021/10/11 05:03:33;;;;;;;10.47;5.83;;;;;;;0.14;100.00;99916.25;5093642;28;20141;-82
2021/10/11 05:06:00;;;;;;;9.68;5.85;;;;;;;0.03;100.00;99933.94;5093810;28;20078;-83
2021/10/11 05:08:27;;;;;;;10.60;6.60;;;;;;;-0.07;100.00;99910.50;5093702;28;20437;-82
2021/10/11 05:10:54;;;;;;;14.93;6.85;;;;;;;-0.09;100.00;99919.56;5093546;28;20495;-82
2021/10/11 05:13:20;;;;;;;10.07;6.45;;;;;;;-0.04;100.00;99931.66;5093670;28;20048;-82
2021/10/11 05:15:51;;;;;;;18.70;8.90;;;;;;;0.07;100.00;99935.47;5090378;28;20044;-82
2021/10/11 05:18:20;;;;;;;12.30;7.13;;;;;;;0.04;100.00;99941.88;5093716;28;20063;-83
2021/10/11 05:21:11;;;;;;;9.30;6.07;;;;;;;-0.12;100.00;99919.75;5093121;28;20051;-82
2021/10/11 05:23:38;;;;;;;9.18;6.13;;;;;;;-0.21;100.00;99921.19;5082864;28;20040;-82
2021/10/11 05:26:16;;;;;;;13.95;6.65;;;;;;;-0.13;100.00;99926.06;5092761;28;20047;-82
2021/10/11 05:28:42;;;;;;;11.60;6.53;;;;;;;-0.03;100.00;99895.97;5093425;28;20040;-82
2021/10/11 05:31:10;;;;;;;13.10;6.93;;;;;;;-0.17;100.00;99905.84;5093067;28;20054;-82
2021/10/11 05:33:38;;;;;;;9.67;7.13;;;;;;;-0.14;100.00;99933.22;5083810;28;20040;-82
2021/10/11 05:36:05;;;;;;;16.37;6.90;;;;;;;-0.12;100.00;99938.47;5085308;28;20495;-84
2021/10/11 05:38:40;;;;;;;12.43;7.17;;;;;;;0.00;100.00;99924.34;5097762;28;20479;-82
2021/10/11 05:41:07;;;;;;;12.52;7.82;;;;;;;-0.07;100.00;99913.16;5097942;28;20050;-83
2021/10/11 05:43:34;;;;;;;14.83;9.73;;;;;;;-0.07;100.00;99923.84;5097341;28;20048;-83
2021/10/11 05:46:01;;;;;;;18.83;9.33;;;;;;;-0.16;100.00;99926.28;5097231;28;20047;-81
2021/10/11 05:48:30;;;;;;;12.87;8.13;;;;;;;0.03;100.00;99945.53;5097229;28;20045;-84
2021/10/11 05:50:58;;;;;;;13.73;7.67;;;;;;;-0.01;100.00;99941.31;5097591;28;20048;-83
2021/10/11 05:53:25;;;;;;;9.95;6.38;;;;;;;0.02;100.00;99942.94;5097524;28;20075;-84
2021/10/11 05:55:54;;;;;;;11.50;7.32;;;;;;;0.10;100.00;99946.81;5096792;28;20563;-84
2021/10/11 05:58:21;;;;;;;12.90;7.78;;;;;;;0.06;100.00;99926.59;5097523;28;20479;-84
2021/10/11 06:03:56;;;;;;;13.18;7.38;;;;;;;0.14;100.00;99942.16;5075381;28;20059;-83
2021/10/11 06:06:36;;;;;;;31.88;8.93;;;;;;;0.30;100.00;99956.25;5084585;28;20044;-82
2021/10/11 06:09:03;;;;;;;13.20;7.83;;;;;;;0.36;100.00;99968.34;5096697;28;20193;-83
2021/10/11 06:11:30;;;;;;;12.80;7.50;;;;;;;0.35;100.00;99959.47;5096740;28;20078;-83
2021/10/11 06:14:03;;;;;;;12.45;6.78;;;;;;;0.48;100.00;99962.22;5096737;28;20078;-82
2021/10/11 06:16:30;;;;;;;12.80;7.60;;;;;;;0.41;100.00;99944.00;5095922;28;20078;-83
2021/10/11 06:18:57;;;;;;;12.60;7.50;;;;;;;0.42;100.00;99967.09;5096513;28;20044;-82
2021/10/11 06:21:25;;;;;;;13.27;8.93;;;;;;;0.46;100.00;99963.25;5096490;28;20062;-82
2021/10/11 06:23:52;;;;;;;14.68;8.93;;;;;;;0.68;100.00;99982.28;5096164;28;20044;-81
2021/10/11 06:26:19;;;;;;;18.30;8.55;;;;;;;0.63;100.00;99979.06;5095996;28;20082;-80
2021/10/11 06:28:46;;;;;;;15.00;8.13;;;;;;;0.77;100.00;99980.81;5096214;28;20043;-81
2021/10/11 06:31:12;;;;;;;10.82;7.43;;;;;;;0.91;100.00;99987.06;5095966;28;20130;-82
2021/10/11 06:33:39;;;;;;;12.52;8.73;;;;;;;0.88;100.00;99994.34;5096525;28;20105;-81
2021/10/11 06:36:06;;;;;;;13.38;8.93;;;;;;;0.90;100.00;99961.25;5095130;28;20472;-82
2021/10/11 06:38:35;;;;;;;14.43;8.93;;;;;;;0.96;100.00;99966.19;5094984;28;20048;-84
2021/10/11 06:41:02;;;;;;;13.77;8.57;;;;;;;0.94;100.00;99960.94;5088733;28;20044;-83
2021/10/11 06:43:29;;;;;;;16.10;9.25;;;;;;;1.07;100.00;99969.00;5096464;28;20056;-83
2021/10/11 06:45:56;;;;;;;16.30;8.98;;;;;;;1.15;100.00;99952.41;5094712;28;20044;-82
2021/10/11 06:48:23;;;;;;;14.93;8.85;;;;;;;1.18;100.00;99957.56;5090636;28;20127;-83
2021/10/11 06:50:50;;;;;;;16.30;9.23;;;;;;;1.31;100.00;99968.28;5096244;28;20048;-83
2021/10/11 06:53:17;;;;;;;16.88;9.27;;;;;;;1.38;100.00;99964.22;5096182;28;20145;-83
2021/10/11 06:55:45;;;;;;;17.20;8.10;;;;;;;1.29;100.00;99930.03;5095586;28;20043;-82
2021/10/11 06:58:12;;;;;;;16.08;8.90;;;;;;;1.45;100.00;99944.06;5096396;28;20052;-82
2021/10/11 07:00:39;;;;;;;14.35;7.45;;;;;;;1.62;100.00;99955.44;5095759;28;20055;-82
2021/10/11 07:03:06;;;;;;;14.27;8.73;;;;;;;1.63;100.00;99943.75;5095645;28;20071;-82
2021/10/11 07:05:33;;;;;;;15.20;8.82;;;;;;;1.90;100.00;99973.94;5095005;28;20079;-82
2021/10/11 07:08:03;;;;;;;17.27;9.25;;;;;;;1.98;100.00;99956.44;5095481;28;20478;-82
2021/10/11 07:10:30;;;;;;;13.77;8.30;;;;;;;2.01;100.00;99950.88;5095350;28;20055;-82
2021/10/11 07:12:58;;;;;;;14.95;8.13;;;;;;;2.19;100.00;99970.97;5095769;28;20063;-82
2021/10/11 07:15:25;;;;;;;15.90;9.13;;;;;;;2.10;100.00;99952.88;5095491;28;20047;-82
2021/10/11 07:17:53;;;;;;;16.23;10.02;;;;;;;2.30;100.00;99971.06;5095590;28;20054;-82
2021/10/11 07:20:20;;;;;;;14.02;8.50;;;;;;;2.45;100.00;99982.50;5095850;28;20422;-82
2021/10/11 07:22:47;;;;;;;15.25;9.52;;;;;;;2.40;100.00;99957.81;5095570;28;20071;-82
2021/10/11 07:25:14;;;;;;;17.67;9.57;;;;;;;2.67;100.00;99978.22;5095170;28;20044;-82
2021/10/11 07:27:41;;;;;;;17.42;9.18;;;;;;;2.68;100.00;99963.84;5095505;28;20048;-82
2021/10/11 07:30:10;;;;;;;16.20;9.32;;;;;;;2.85;100.00;99975.16;5094928;28;20124;-82
2021/10/11 07:32:37;;;;;;;19.80;10.13;;;;;;;2.91;100.00;99969.31;5095792;28;20048;-82
2021/10/11 07:35:04;;;;;;;19.92;10.95;;;;;;;3.13;100.00;99985.50;5094618;28;20055;-82
2021/10/11 07:37:31;;;;;;;21.13;10.70;;;;;;;3.25;100.00;99989.09;5074639;28;20044;-81
2021/10/11 07:39:59;;;;;;;15.90;10.48;;;;;;;3.41;100.00;100004.03;5076530;28;20672;-83
2021/10/11 07:42:26;;;;;;;22.08;12.13;;;;;;;3.36;100.00;99991.78;5095098;28;20054;-83
2021/10/11 07:44:53;;;;;;;18.92;12.27;;;;;;;3.40;100.00;100000.47;5092850;28;20047;-83
2021/10/11 07:47:21;;;;;;;25.65;12.85;;;;;;;3.63;100.00;100000.50;5093852;28;20054;-83
2021/10/11 07:49:51;;;;;;;19.40;11.13;;;;;;;3.85;100.00;100010.44;5094937;28;20040;-82
2021/10/11 07:52:18;;;;;;;25.98;12.50;;;;;;;4.00;100.00;100009.22;5095378;28;20128;-82
2021/10/11 07:55:38;;;;;;;23.10;11.75;;;;;;;4.32;100.00;100026.47;5094087;28;20052;-83
2021/10/11 07:58:05;;;;;;;23.85;11.32;;;;;;;4.40;100.00;100029.41;5061460;28;20098;-86
2021/10/11 08:00:32;;;;;;;28.58;11.90;;;;;;;4.46;100.00;100010.06;5086997;28;20051;-83
2021/10/11 08:03:01;;;;;;;30.10;11.98;;;;;;;4.60;100.00;99999.00;5095067;28;20571;-84
2021/10/11 08:05:28;;;;;;;19.33;11.57;;;;;;;4.83;100.00;100020.50;5094170;28;20070;-84
2021/10/11 08:07:55;;;;;;;24.98;12.50;;;;;;;4.98;100.00;100023.75;5094591;28;20075;-83
2021/10/11 08:10:21;;;;;;;22.83;12.55;;;;;;;5.15;100.00;100006.19;5094541;28;20472;-82
2021/10/11 08:12:49;;;;;;;21.33;12.45;;;;;;;5.21;100.00;99994.88;5094740;28;20407;-83
2021/10/11 08:15:20;;;;;;;23.60;12.45;;;;;;;5.36;100.00;99994.56;5094293;28;20051;-83
2021/10/11 08:17:49;;;;;;;30.27;12.85;;;;;;;5.37;100.00;99996.28;5110721;28;20052;-83
2021/10/11 08:20:18;;;;;;;31.75;12.68;;;;;;;5.39;100.00;100005.06;5094118;28;20078;-82
2021/10/11 08:22:46;;;;;;;24.63;13.07;;;;;;;5.47;100.00;100005.28;5094273;28;20054;-83
2021/10/11 08:25:16;;;;;;;24.73;11.75;;;;;;;5.55;100.00;99999.22;5094164;28;20052;-83
2021/10/11 08:27:42;;;;;;;;;;;;;;;5.65;100.00;100006.38;5094936;28;20052;-83
2021/10/11 08:30:14;;;;;;;26.10;12.45;;;;;;;5.65;100.00;100001.00;5094210;28;19927;-83
2021/10/11 08:32:41;;;;;;;28.42;13.00;;;;;;;5.79;100.00;100001.66;5094022;28;20495;-83
2021/10/11 08:35:08;;;;;;;20.20;12.52;;;;;;;5.79;100.00;99980.06;5093277;28;20391;-82
2021/10/11 08:37:39;;;;;;;27.88;12.70;;;;;;;5.98;98.81;100003.63;5093588;28;20047;-83
2021/10/11 08:40:28;;;;;;;21.27;13.48;;;;;;;6.12;100.00;99975.41;5093401;28;20051;-83
2021/10/11 08:42:57;;;;;;;28.38;15.70;;;;;;;6.18;99.61;99978.41;5094508;28;20044;-83
2021/10/11 08:45:23;;;;;;;28.17;12.10;;;;;;;6.33;98.03;99992.38;5093563;28;20044;-80
2021/10/11 08:47:50;;;;;;;24.25;13.10;;;;;;;6.38;97.39;99976.63;5093876;28;20055;-80
2021/10/11 08:50:17;;;;;;;31.08;13.32;;;;;;;6.58;96.09;99990.19;5100140;28;20044;-80
2021/10/11 08:52:47;;;;;;;22.60;11.95;;;;;;;6.81;96.27;99990.78;5093643;28;20051;-80
2021/10/11 08:55:14;;;;;;;22.58;12.30;;;;;;;6.85;95.65;99978.72;5093217;28;20620;-81
2021/10/11 08:57:41;;;;;;;24.13;12.73;;;;;;;6.92;95.73;99973.56;5093391;28;20048;-80
2021/10/11 09:00:11;;;;;;;22.77;12.55;;;;;;;6.95;94.12;99989.50;5093952;28;20551;-81
2021/10/11 09:02:52;;;;;;;25.10;12.18;;;;;;;7.09;95.93;99982.81;5093476;28;20048;-80
2021/10/11 09:05:23;;;;;;;21.02;12.10;;;;;;;7.04;92.94;99967.03;5090659;28;20113;-80
2021/10/11 09:07:58;;;;;;;26.10;12.30;;;;;;;7.08;94.11;99978.44;5094210;28;20113;-80
2021/10/11 09:10:25;;;;;;;20.17;12.32;;;;;;;7.01;95.43;99964.59;5093089;28;20044;-80
2021/10/11 09:12:52;;;;;;;19.35;11.68;;;;;;;7.11;94.06;99945.69;5093664;28;20051;-81
2021/10/11 09:15:19;;;;;;;21.30;12.65;;;;;;;7.32;94.41;99956.34;5093070;28;20068;-80
2021/10/11 09:17:50;;;;;;;24.88;12.48;;;;;;;7.36;93.79;99946.97;5093505;28;20055;-81
2021/10/11 09:20:36;;;;;;;25.05;12.60;;;;;;;7.63;94.80;99961.53;5090614;27;20388;-81
2021/10/11 09:23:03;;;;;;;19.85;12.02;;;;;;;7.71;93.13;99940.03;5090741;28;20063;-81
2021/10/11 09:25:36;;;;;;;26.05;11.63;;;;;;;7.76;92.12;99945.00;5090531;28;20044;-81
2021/10/11 09:28:04;;;;;;;26.63;12.85;;;;;;;7.80;92.37;99957.25;5090899;28;20059;-81
2021/10/11 09:30:32;;;;;;;22.98;11.90;;;;;;;7.94;91.82;99977.56;5090526;28;20051;-81
2021/10/11 09:33:08;;;;;;;23.92;10.93;;;;;;;7.99;91.12;99972.53;5090773;28;20567;-81
2021/10/11 09:35:37;;;;;;;19.27;10.98;;;;;;;7.96;90.47;99971.00;5090221;28;20498;-81
2021/10/11 09:38:16;;;;;;;20.83;11.40;;;;;;;7.92;90.96;99976.88;5090270;28;20052;-81
2021/10/11 09:40:43;;;;;;;21.55;11.40;;;;;;;7.98;90.97;99958.16;5090397;28;20056;-81
2021/10/11 09:43:14;;;;;;;25.58;11.27;;;;;;;7.89;90.96;99948.22;5090618;28;20056;-81
2021/10/11 09:45:42;;;;;;;25.15;12.13;;;;;;;8.03;91.15;99948.75;5090121;28;20098;-81
2021/10/11 09:48:09;;;;;;;19.50;10.95;;;;;;;8.16;90.37;99965.50;5090283;28;20048;-82
2021/10/11 09:50:39;;;;;;;23.13;12.00;;;;;;;8.13;90.90;99953.13;5090933;28;20052;-82
2021/10/11 09:53:08;;;;;;;19.77;11.35;;;;;;;8.22;89.29;99961.31;5090370;28;20135;-81
2021/10/11 09:55:37;;;;;;;22.45;12.05;;;;;;;8.33;88.46;99956.56;5089891;28;20102;-81
2021/10/11 09:58:04;;;;;;;20.67;12.18;;;;;;;8.60;88.46;99968.44;5090141;28;20056;-81
2021/10/11 10:00:31;;;;;;;24.30;12.88;;;;;;;8.58;87.81;99966.84;5089845;28;20544;-81
2021/10/11 10:02:58;;;;;;;24.63;11.85;;;;;;;8.39;87.69;99959.69;5090061;28;20052;-82
2021/10/11 10:05:29;;;;;;;18.63;11.50;;;;;;;8.53;88.25;99963.78;5081527;28;20057;-81
2021/10/11 10:07:58;;;;;;;19.95;11.32;;;;;;;8.48;87.94;99946.09;5089546;28;20510;-81
2021/10/11 10:10:28;;;;;;;25.55;12.43;;;;;;;8.63;87.38;99967.28;5090363;28;20055;-81
2021/10/11 10:12:55;;;;;;;19.77;11.63;;;;;;;8.64;86.55;99945.44;5089637;28;20502;-81
2021/10/11 10:15:31;;;;;;;23.60;11.52;;;;;;;8.78;85.98;99951.34;5090039;28;20106;-81
2021/10/11 10:18:03;;;;;;;22.75;12.80;;;;;;;8.87;86.59;99947.69;5089314;28;20143;-82
2021/10/11 10:20:31;;;;;;;24.88;11.80;;;;;;;9.10;85.62;99956.19;5089593;28;20045;-82
2021/10/11 10:22:59;;;;;;;20.63;12.45;;;;;;;9.09;84.87;99950.94;5089374;28;20047;-81
2021/10/11 10:25:26;;;;;;;23.95;11.98;;;;;;;9.15;85.51;99942.16;5089782;28;20056;-81
2021/10/11 10:28:07;;;;;;;21.50;12.05;;;;;;;9.22;86.25;99948.69;5089460;28;20091;-81
2021/10/11 10:30:34;;;;;;;21.25;11.45;;;;;;;9.32;84.40;99935.00;5083761;28;20045;-82
2021/10/11 10:33:03;;;;;;;20.98;11.45;;;;;;;9.36;84.33;99944.53;5075805;28;20079;-82
2021/10/11 10:35:31;;;;;;;25.65;13.07;;;;;;;9.41;84.42;99925.94;5075755;28;20048;-81
2021/10/11 10:38:00;;;;;;;22.15;11.63;;;;;;;9.62;83.23;99949.13;5069268;28;20608;-81
2021/10/11 10:40:29;;;;;;;26.23;10.98;;;;;;;9.54;83.91;99937.22;5056212;28;20396;-81
2021/10/11 10:43:07;;;;;;;22.92;12.02;;;;;;;9.63;84.28;99931.84;5071906;28;20055;-81
2021/10/11 10:45:36;;;;;;;22.02;11.38;;;;;;;9.83;83.50;99917.03;5075931;28;20044;-82
2021/10/11 10:48:04;;;;;;;19.08;11.60;;;;;;;9.79;82.80;99914.81;5075713;28;20056;-81
2021/10/11 10:50:33;;;;;;;20.75;10.55;;;;;;;10.04;82.58;99924.78;5076025;28;20049;-81
2021/10/11 10:53:03;;;;;;;21.42;12.07;;;;;;;10.18;80.76;99922.47;5075790;28;20044;-81
2021/10/11 10:55:30;;;;;;;21.17;12.13;;;;;;;10.18;80.56;99915.16;5075529;28;20052;-81
2021/10/11 10:58:00;;;;;;;24.45;12.15;;;;;;;10.20;80.39;99909.53;5075863;28;20060;-82
2021/10/11 11:00:27;;;;;;;23.73;12.15;;;;;;;10.28;80.83;99898.69;5075771;28;20048;-81
2021/10/11 11:02:54;;;;;;;19.60;12.38;;;;;;;10.33;81.17;99884.59;5075562;28;20044;-80
2021/10/11 11:05:23;;;;;;;20.38;11.70;;;;;;;10.30;81.67;99882.22;5075508;28;20075;-80
2021/10/11 11:07:53;;;;;;;20.42;12.55;;;;;;;10.43;81.38;99885.34;5075353;28;20052;-80
2021/10/11 11:10:23;;;;;;;21.15;11.35;;;;;;;10.57;81.30;99894.75;5075431;28;20056;-81
2021/10/11 11:12:54;;;;;;;24.58;12.95;;;;;;;10.52;80.90;99884.34;5075155;28;20052;-80
2021/10/11 11:15:28;;;;;;;21.95;12.90;;;;;;;10.65;79.80;99888.47;5075039;28;20052;-80
2021/10/11 11:17:57;;;;;;;21.80;11.80;;;;;;;10.64;79.26;99876.72;5075214;28;20049;-80
2021/10/11 11:20:26;;;;;;;23.40;11.27;;;;;;;10.72;79.99;99893.06;5075030;28;20050;-82
2021/10/11 11:22:54;;;;;;;19.90;11.80;;;;;;;10.69;80.55;99895.25;5075039;28;20083;-81
2021/10/11 11:25:32;;;;;;;21.58;12.50;;;;;;;10.80;80.03;99887.63;5075014;28;20056;-81
2021/10/11 11:28:03;;;;;;;24.20;12.88;;;;;;;10.80;78.36;99874.00;5066159;28;20123;-81
2021/10/11 11:30:30;;;;;;;23.33;12.43;;;;;;;11.03;77.69;99876.06;5075626;28;20044;-80
2021/10/11 11:33:02;;;;;;;21.90;11.75;;;;;;;11.07;78.03;99858.38;5074748;28;20049;-81
2021/10/11 11:35:31;;;;;;;28.35;12.40;;;;;;;11.25;77.37;99885.41;5074885;28;20578;-81
2021/10/11 11:38:00;;;;;;;20.77;12.13;;;;;;;11.31;77.92;99864.81;5074273;28;20511;-81
2021/10/11 11:40:32;;;;;;;23.35;11.98;;;;;;;11.35;76.56;99871.63;5074888;28;20090;-81